createdAt,value
2019-01-12T00:01:30.528Z,31.67
2019-01-12T00:03:59.397Z,31.10
2019-01-12T00:06:28.221Z,35.20
2019-01-12T00:08:57.073Z,30.70
2019-01-12T00:11:25.917Z,28.47
2019-01-12T00:13:54.762Z,29.57
2019-01-12T00:16:24.196Z,28.63
2019-01-12T00:18:53.104Z,28.83
2019-01-12T00:21:21.909Z,31.47
2019-01-12T00:23:50.784Z,34.78
2019-01-12T00:26:19.609Z,30.83
2019-01-12T00:28:48.447Z,30.03
2019-01-12T00:31:17.291Z,30.90
2019-01-12T00:33:46.125Z,30.67
2019-01-12T00:36:14.987Z,30.80
2019-01-12T00:38:43.819Z,31.40
2019-01-12T00:41:13.758Z,31.73
2019-01-12T00:43:41.487Z,32.20
2019-01-12T00:46:10.331Z,36.40
2019-01-12T00:48:39.183Z,30.73
2019-01-12T00:51:08.020Z,30.10
2019-01-12T00:53:36.901Z,29.97
2019-01-12T00:56:05.707Z,30.73
2019-01-12T00:58:35.289Z,31.10
2019-01-12T01:01:04.145Z,32.07
2019-01-12T01:03:32.979Z,32.78
2019-01-12T01:06:01.838Z,28.27
2019-01-12T01:08:30.668Z,30.03
2019-01-12T01:10:59.511Z,29.97
2019-01-12T01:13:28.346Z,29.03
2019-01-12T01:15:57.928Z,28.70
2019-01-12T01:18:26.761Z,29.33
2019-01-12T01:20:55.617Z,29.37
2019-01-12T01:23:24.468Z,29.43
2019-01-12T01:25:53.290Z,32.13
2019-01-12T01:28:22.133Z,27.97
2019-01-12T01:30:50.979Z,28.70
2019-01-12T01:33:19.814Z,27.17
2019-01-12T01:35:48.639Z,30.52
2019-01-12T01:38:17.482Z,26.43
2019-01-12T01:40:46.313Z,28.42
2019-01-12T01:43:15.136Z,24.03
2019-01-12T01:45:43.974Z,24.00
2019-01-12T01:48:12.809Z,23.43
2019-01-12T01:50:41.663Z,22.60
2019-01-12T01:53:10.508Z,24.47
2019-01-12T01:55:39.351Z,24.20
2019-01-12T01:58:08.186Z,23.83
2019-01-12T02:00:37.020Z,22.90
2019-01-12T02:03:05.886Z,22.00
2019-01-12T02:05:34.725Z,23.53
2019-01-12T02:08:04.294Z,22.57
2019-01-12T02:10:33.150Z,23.97
2019-01-12T02:13:01.994Z,23.20
2019-01-12T02:15:30.833Z,22.63
2019-01-12T02:17:59.670Z,24.73
2019-01-12T02:20:28.507Z,23.23
2019-01-12T02:22:57.352Z,22.87
2019-01-12T02:25:26.196Z,23.40
2019-01-12T02:27:55.024Z,23.47
2019-01-12T02:30:23.908Z,23.83
2019-01-12T02:32:52.695Z,24.37
2019-01-12T02:35:21.523Z,25.27
2019-01-12T02:37:50.364Z,24.63
2019-01-12T02:40:19.209Z,23.80
2019-01-12T02:42:48.042Z,24.60
2019-01-12T02:45:16.891Z,23.07
2019-01-12T02:47:45.742Z,23.17
2019-01-12T02:50:15.386Z,24.43
2019-01-12T02:52:44.160Z,23.40
2019-01-12T02:55:13.010Z,23.27
2019-01-12T02:57:41.838Z,23.93
2019-01-12T03:00:14.218Z,22.57
2019-01-12T03:02:43.812Z,22.70
2019-01-12T03:05:12.652Z,23.70
2019-01-12T03:07:41.490Z,22.50
2019-01-12T03:10:11.075Z,25.10
2019-01-12T03:12:39.890Z,26.20
2019-01-12T03:15:08.745Z,24.47
2019-01-12T03:17:37.594Z,25.97
2019-01-12T03:20:07.336Z,25.47
2019-01-12T03:22:36.168Z,26.33
2019-01-12T03:25:05.014Z,28.33
2019-01-12T03:27:33.852Z,26.43
2019-01-12T03:30:02.694Z,26.57
2019-01-12T03:32:31.524Z,27.67
2019-01-12T03:35:00.408Z,25.97
2019-01-12T03:37:29.223Z,27.63
2019-01-12T03:39:58.034Z,26.67
2019-01-12T03:42:26.884Z,24.53
2019-01-12T03:44:55.721Z,28.80
2019-01-12T03:47:24.546Z,25.20
2019-01-12T03:49:54.126Z,23.40
2019-01-12T03:52:22.960Z,25.00
2019-01-12T03:54:51.807Z,25.00
2019-01-12T03:57:20.635Z,26.60
2019-01-12T03:59:49.503Z,26.07
2019-01-12T04:02:18.360Z,28.03
2019-01-12T04:04:47.185Z,29.83
2019-01-12T04:07:16.030Z,26.90
2019-01-12T04:09:44.866Z,29.73
2019-01-12T04:12:14.438Z,27.17
2019-01-12T04:14:43.282Z,25.70
2019-01-12T04:17:12.134Z,25.53
2019-01-12T04:19:40.968Z,26.33
2019-01-12T04:22:09.798Z,26.23
2019-01-12T04:24:38.646Z,27.07
2019-01-12T04:27:07.490Z,26.63
2019-01-12T04:29:37.059Z,26.63
2019-01-12T04:32:05.900Z,26.80
2019-01-12T04:34:34.728Z,25.03
2019-01-12T04:37:03.575Z,26.67
2019-01-12T04:39:32.418Z,26.33
2019-01-12T04:42:01.256Z,26.50
2019-01-12T04:44:30.108Z,26.33
2019-01-12T04:46:58.942Z,24.27
2019-01-12T04:49:27.789Z,24.77
2019-01-12T04:51:56.612Z,26.20
2019-01-12T04:54:25.457Z,23.80
2019-01-12T04:56:54.323Z,27.67
2019-01-12T04:59:23.173Z,24.23
2019-01-12T05:01:52.004Z,23.40
2019-01-12T05:04:20.834Z,24.40
2019-01-12T05:06:49.688Z,25.40
2019-01-12T05:09:18.528Z,29.80
2019-01-12T05:11:48.147Z,28.13
2019-01-12T05:14:16.952Z,27.27
2019-01-12T05:16:45.780Z,24.93
2019-01-12T05:19:14.612Z,25.60
2019-01-12T05:21:44.198Z,27.37
2019-01-12T05:24:13.036Z,26.83
2019-01-12T05:26:41.862Z,25.83
2019-01-12T05:29:10.698Z,25.37
2019-01-12T05:31:39.546Z,26.67
2019-01-12T05:34:08.380Z,27.37
2019-01-12T05:36:37.212Z,26.90
2019-01-12T05:39:06.047Z,26.20
2019-01-12T05:41:34.880Z,27.20
2019-01-12T05:44:03.712Z,26.87
2019-01-12T05:46:33.290Z,27.03
2019-01-12T05:49:02.134Z,27.30
2019-01-12T05:51:30.979Z,27.40
2019-01-12T05:53:59.822Z,27.90
2019-01-12T05:56:28.660Z,27.53
2019-01-12T05:58:58.096Z,26.60
2019-01-12T06:01:26.924Z,28.13
2019-01-12T06:03:55.762Z,27.43
2019-01-12T06:06:24.602Z,28.77
2019-01-12T06:08:53.443Z,29.20
2019-01-12T06:11:22.272Z,27.10
2019-01-12T06:13:51.100Z,27.70
2019-01-12T06:16:20.683Z,28.47
2019-01-12T06:18:49.519Z,29.27
2019-01-12T06:21:18.350Z,29.13
2019-01-12T06:23:47.180Z,26.53
2019-01-12T06:26:16.762Z,28.53
2019-01-12T06:28:45.595Z,27.93
2019-01-12T06:31:14.444Z,28.83
2019-01-12T06:33:43.282Z,31.03
2019-01-12T06:36:12.108Z,30.00
2019-01-12T06:38:40.937Z,29.73
2019-01-12T06:41:09.771Z,30.13
2019-01-12T06:43:38.606Z,31.87
2019-01-12T06:46:07.450Z,31.07
2019-01-12T06:48:36.294Z,34.63
2019-01-12T06:51:05.134Z,30.90
2019-01-12T06:53:33.972Z,30.20
2019-01-12T06:56:02.818Z,31.57
2019-01-12T06:58:31.637Z,31.53
2019-01-12T07:01:01.213Z,31.67
2019-01-12T07:03:30.054Z,31.97
2019-01-12T07:05:58.888Z,32.03
2019-01-12T07:08:27.723Z,29.60
2019-01-12T07:10:56.570Z,29.03
2019-01-12T07:13:25.398Z,29.83
2019-01-12T07:15:54.239Z,29.07
2019-01-12T07:18:23.078Z,28.57
2019-01-12T07:20:51.938Z,28.50
2019-01-12T07:23:20.791Z,29.57
2019-01-12T07:25:49.616Z,28.03
2019-01-12T07:28:18.456Z,28.13
2019-01-12T07:30:47.289Z,28.77
2019-01-12T07:33:16.133Z,29.17
2019-01-12T07:35:44.986Z,26.90
2019-01-12T07:38:14.568Z,20.03
2019-01-12T07:40:43.406Z,29.80
2019-01-12T07:43:12.268Z,26.23
2019-01-12T07:45:41.853Z,27.77
2019-01-12T07:48:10.710Z,29.23
2019-01-12T07:50:39.552Z,27.33
2019-01-12T07:53:09.154Z,24.53
2019-01-12T07:55:38.012Z,27.13
2019-01-12T07:58:06.916Z,26.65
2019-01-12T08:00:35.714Z,24.10
2019-01-12T08:03:04.565Z,24.13
2019-01-12T08:05:33.409Z,26.87
2019-01-12T08:08:02.992Z,23.03
2019-01-12T08:10:31.816Z,29.83
2019-01-12T08:13:00.668Z,23.70
2019-01-12T08:15:29.506Z,23.70
2019-01-12T08:17:58.374Z,22.97
2019-01-12T08:20:27.208Z,24.33
2019-01-12T08:22:56.042Z,22.53
2019-01-12T08:25:25.651Z,23.30
2019-01-12T08:27:55.252Z,25.97
2019-01-12T08:30:25.275Z,26.33
2019-01-12T08:32:54.118Z,24.67
2019-01-12T08:35:22.955Z,22.47
2019-01-12T08:37:51.792Z,22.90
2019-01-12T08:40:20.648Z,23.67
2019-01-12T08:42:50.434Z,22.70
2019-01-12T08:45:19.260Z,23.70
2019-01-12T08:47:48.102Z,23.67
2019-01-12T08:50:16.938Z,24.13
2019-01-12T08:52:45.793Z,24.97
2019-01-12T08:55:14.613Z,23.63
2019-01-12T08:57:43.452Z,24.63
2019-01-12T09:00:13.251Z,24.93
2019-01-12T09:02:42.082Z,24.87
2019-01-12T09:05:10.908Z,24.97
2019-01-12T09:07:39.732Z,24.93
2019-01-12T09:10:09.538Z,25.50
2019-01-12T09:12:38.349Z,28.40
2019-01-12T09:15:07.197Z,26.53
2019-01-12T09:17:36.648Z,28.58
2019-01-12T09:20:06.224Z,24.83
2019-01-12T09:22:35.070Z,24.17
2019-01-12T09:25:03.984Z,25.20
2019-01-12T09:27:33.512Z,23.63
2019-01-12T09:30:02.355Z,24.10
2019-01-12T09:32:31.204Z,23.73
2019-01-12T09:35:00.238Z,22.90
2019-01-12T09:37:28.892Z,22.13
2019-01-12T09:39:57.742Z,22.60
2019-01-12T09:42:26.576Z,23.83
2019-01-12T09:44:56.154Z,21.90
2019-01-12T09:47:25.013Z,19.77
2019-01-12T09:49:53.883Z,21.67
2019-01-12T09:52:22.698Z,19.83
2019-01-12T09:54:51.663Z,20.57
2019-01-12T09:57:20.537Z,19.50
2019-01-12T09:59:52.337Z,20.80
2019-01-12T10:02:21.177Z,21.27
2019-01-12T10:04:50.769Z,20.17
2019-01-12T10:07:19.632Z,21.87
2019-01-12T10:09:48.468Z,21.67
2019-01-12T10:12:18.060Z,20.77
2019-01-12T10:14:46.924Z,19.17
2019-01-12T10:17:15.772Z,21.37
2019-01-12T10:19:44.634Z,20.40
2019-01-12T10:22:14.225Z,19.27
2019-01-12T10:24:43.054Z,21.90
2019-01-12T10:27:11.890Z,20.27
2019-01-12T10:29:40.745Z,20.10
2019-01-12T10:32:09.581Z,18.43
2019-01-12T10:34:38.433Z,20.20
2019-01-12T10:37:07.264Z,22.52
2019-01-12T10:39:36.100Z,21.27
2019-01-12T10:42:04.948Z,19.97
2019-01-12T10:44:34.528Z,22.07
2019-01-12T10:47:03.400Z,22.83
2019-01-12T10:49:32.224Z,22.30
2019-01-12T10:52:01.801Z,23.40
2019-01-12T10:54:30.630Z,26.20
2019-01-12T10:57:05.365Z,24.03
2019-01-12T10:59:29.103Z,25.42
2019-01-12T11:01:57.938Z,23.67
2019-01-12T11:04:26.776Z,23.90
2019-01-12T11:06:55.610Z,22.53
2019-01-12T11:09:25.176Z,23.93
2019-01-12T11:11:54.010Z,24.13
2019-01-12T11:14:22.852Z,25.10
2019-01-12T11:16:51.686Z,23.67
2019-01-12T11:19:20.529Z,23.37
2019-01-12T11:21:49.356Z,23.27
2019-01-12T11:24:18.927Z,22.93
2019-01-12T11:26:47.765Z,23.90
2019-01-12T11:29:16.618Z,24.03
2019-01-12T11:31:45.462Z,23.80
2019-01-12T11:34:14.299Z,25.27
2019-01-12T11:36:43.146Z,25.98
2019-01-12T11:39:11.992Z,25.95
2019-01-12T11:41:40.820Z,22.43
2019-01-12T11:44:09.667Z,22.83
2019-01-12T11:46:39.248Z,22.60
2019-01-12T11:49:08.095Z,21.50
2019-01-12T11:51:36.950Z,25.00
2019-01-12T11:54:06.525Z,21.77
2019-01-12T11:56:35.362Z,20.97
2019-01-12T11:59:04.192Z,21.70
2019-01-12T12:01:33.022Z,19.97
2019-01-12T12:04:01.899Z,21.03
2019-01-12T12:06:30.774Z,22.83
2019-01-12T12:08:59.606Z,22.40
2019-01-12T12:11:28.443Z,21.27
2019-01-12T12:13:57.272Z,22.43
2019-01-12T12:16:26.888Z,21.50
2019-01-12T12:18:55.702Z,21.83
2019-01-12T12:21:24.547Z,21.63
2019-01-12T12:23:53.377Z,22.23
2019-01-12T12:26:22.215Z,19.37
2019-01-12T12:28:51.066Z,22.00
2019-01-12T12:31:19.914Z,21.27
2019-01-12T12:33:48.772Z,26.23
2019-01-12T12:36:17.619Z,20.23
2019-01-12T12:38:46.457Z,20.83
2019-01-12T12:41:15.312Z,24.45
2019-01-12T12:43:44.160Z,19.65
2019-01-12T12:46:13.804Z,20.63
2019-01-12T12:48:42.615Z,38.10
2019-01-12T12:51:11.461Z,20.07
2019-01-12T12:53:40.303Z,19.20
2019-01-12T12:56:09.255Z,22.17
2019-01-12T12:58:38.007Z,20.00
2019-01-12T13:01:07.602Z,20.07
2019-01-12T13:03:37.193Z,20.83
2019-01-12T13:06:06.042Z,16.63
2019-01-12T13:08:34.905Z,19.70
2019-01-12T13:11:03.767Z,19.10
2019-01-12T13:13:32.585Z,19.00
2019-01-12T13:16:01.432Z,19.47
2019-01-12T13:18:30.392Z,19.10
2019-01-12T13:20:59.961Z,20.90
2019-01-12T13:23:28.816Z,19.30
2019-01-12T13:25:57.652Z,20.00
2019-01-12T13:28:26.491Z,18.13
2019-01-12T13:30:55.313Z,16.83
2019-01-12T13:33:24.151Z,17.67
2019-01-12T13:35:52.994Z,18.20
2019-01-12T13:38:22.627Z,17.43
2019-01-12T13:40:51.424Z,19.25
2019-01-12T13:43:20.251Z,19.55
2019-01-12T13:45:49.105Z,18.83
2019-01-12T13:48:17.954Z,18.03
2019-01-12T13:50:46.799Z,19.60
2019-01-12T13:53:15.651Z,21.80
2019-01-12T13:55:44.488Z,18.33
2019-01-12T13:58:13.329Z,18.10
2019-01-12T14:00:42.156Z,17.17
2019-01-12T14:03:11.007Z,16.97
2019-01-12T14:05:39.844Z,17.73
2019-01-12T14:08:08.683Z,17.60
2019-01-12T14:10:37.527Z,17.57
2019-01-12T14:13:06.362Z,17.30
2019-01-12T14:15:35.196Z,17.13
2019-01-12T14:18:04.032Z,16.53
2019-01-12T14:20:32.129Z,16.73
2019-01-12T14:23:00.970Z,16.70
2019-01-12T14:25:29.837Z,17.47
2019-01-12T14:27:58.674Z,16.97
2019-01-12T14:30:27.518Z,19.80
2019-01-12T14:32:56.364Z,17.03
2019-01-12T14:35:25.188Z,16.67
2019-01-12T14:37:54.039Z,15.87
2019-01-12T14:40:22.893Z,16.90
2019-01-12T14:42:51.739Z,17.00
2019-01-12T14:45:21.380Z,17.00
2019-01-12T14:47:50.215Z,17.00
2019-01-12T14:50:19.062Z,17.17
2019-01-12T14:52:48.644Z,18.57
2019-01-12T14:55:17.632Z,17.77
2019-01-12T14:57:46.449Z,16.90
2019-01-12T15:00:16.856Z,17.93
2019-01-12T15:02:46.964Z,20.27
2019-01-12T15:05:15.424Z,17.07
2019-01-12T15:07:45.002Z,20.00
2019-01-12T15:10:13.856Z,16.47
2019-01-12T15:12:42.703Z,18.67
2019-01-12T15:15:11.556Z,14.90
2019-01-12T15:17:41.149Z,12.90
2019-01-12T15:20:10.941Z,17.90
2019-01-12T15:22:39.794Z,13.10
2019-01-12T15:25:08.621Z,12.20
2019-01-12T15:27:37.463Z,12.27
2019-01-12T15:30:10.180Z,12.47
2019-01-12T15:32:39.029Z,12.17
2019-01-12T15:35:07.871Z,12.27
2019-01-12T15:37:36.710Z,12.40
2019-01-12T15:40:05.556Z,11.93
2019-01-12T15:42:34.405Z,12.47
2019-01-12T15:45:03.263Z,12.47
2019-01-12T15:47:32.128Z,13.13
2019-01-12T15:50:00.960Z,15.52
2019-01-12T15:52:29.830Z,12.83
2019-01-12T15:54:58.680Z,12.73
2019-01-12T15:57:27.525Z,13.95
2019-01-12T15:59:56.431Z,12.77
2019-01-12T16:02:25.250Z,12.97
2019-01-12T16:04:54.100Z,15.27
2019-01-12T16:07:22.946Z,13.67
2019-01-12T16:09:51.797Z,13.70
2019-01-12T16:12:20.638Z,16.33
2019-01-12T16:14:50.255Z,14.00
2019-01-12T16:17:19.100Z,16.80
2019-01-12T16:19:47.953Z,14.30
2019-01-12T16:22:16.804Z,14.07
2019-01-12T16:24:45.666Z,13.73
2019-01-12T16:27:14.520Z,16.77
2019-01-12T16:29:43.364Z,14.23
2019-01-12T16:32:12.217Z,15.07
2019-01-12T16:34:41.049Z,15.25
2019-01-12T16:37:09.909Z,13.17
2019-01-12T16:39:38.746Z,15.15
2019-01-12T16:42:08.334Z,13.57
2019-01-12T16:44:37.202Z,12.60
2019-01-12T16:47:06.066Z,14.43
2019-01-12T16:49:34.902Z,14.60
2019-01-12T16:52:03.756Z,15.00
2019-01-12T16:54:32.592Z,14.73
2019-01-12T16:57:02.180Z,14.83
2019-01-12T16:59:31.047Z,17.40
2019-01-12T17:01:59.895Z,15.57
2019-01-12T17:04:29.478Z,14.03
2019-01-12T17:06:58.337Z,14.30
2019-01-12T17:09:27.185Z,15.43
2019-01-12T17:11:56.033Z,13.93
2019-01-12T17:14:24.866Z,16.00
2019-01-12T17:16:53.706Z,13.87
2019-01-12T17:19:22.557Z,14.23
2019-01-12T17:21:51.426Z,13.77
2019-01-12T17:24:20.270Z,13.63
2019-01-12T17:26:49.111Z,13.07
2019-01-12T17:29:18.147Z,13.13
2019-01-12T17:31:47.701Z,12.70
2019-01-12T17:34:15.641Z,13.70
2019-01-12T17:36:44.475Z,12.00
2019-01-12T17:39:13.318Z,11.83
2019-01-12T17:41:42.186Z,12.50
2019-01-12T17:44:11.049Z,12.32
2019-01-12T17:46:39.907Z,10.73
2019-01-12T17:49:09.485Z,11.43
2019-01-12T17:51:38.328Z,11.47
2019-01-12T17:54:07.179Z,11.07
2019-01-12T17:56:36.045Z,11.85
2019-01-12T17:59:04.890Z,10.87
2019-01-12T18:01:33.707Z,10.30
2019-01-12T18:04:02.549Z,9.93
2019-01-12T18:06:31.382Z,9.27
2019-01-12T18:09:00.215Z,8.17
2019-01-12T18:11:29.907Z,8.27
2019-01-12T18:13:58.632Z,7.33
2019-01-12T18:16:27.471Z,7.50
2019-01-12T18:18:56.309Z,6.93
2019-01-12T18:21:25.152Z,6.80
2019-01-12T18:23:53.987Z,5.70
2019-01-12T18:26:22.829Z,5.47
2019-01-12T18:28:51.685Z,6.60
2019-01-12T18:31:20.675Z,6.80
2019-01-12T18:33:50.119Z,7.30
2019-01-12T18:36:19.710Z,7.47
2019-01-12T18:38:48.550Z,6.93
2019-01-12T18:41:17.367Z,7.93
2019-01-12T18:43:46.199Z,7.37
2019-01-12T18:46:15.073Z,7.13
2019-01-12T18:48:43.881Z,7.50
2019-01-12T18:51:12.716Z,7.30
2019-01-12T18:53:41.555Z,7.07
2019-01-12T18:56:10.377Z,6.37
2019-01-12T18:58:39.203Z,6.63
2019-01-12T19:01:08.046Z,5.97
2019-01-12T19:03:36.895Z,5.40
2019-01-12T19:06:05.739Z,5.67
2019-01-12T19:08:34.579Z,5.57
2019-01-12T19:11:03.427Z,6.47
2019-01-12T19:13:32.259Z,5.43
2019-01-12T19:16:01.096Z,5.00
2019-01-12T19:18:29.961Z,4.83
2019-01-12T19:20:58.809Z,4.30
2019-01-12T19:23:27.699Z,4.33
2019-01-12T19:25:56.538Z,4.70
2019-01-12T19:28:25.363Z,4.60
2019-01-12T19:30:54.198Z,4.87
2019-01-12T19:33:23.768Z,5.00
2019-01-12T19:35:52.638Z,6.03
2019-01-12T19:38:21.454Z,6.00
2019-01-12T19:40:50.296Z,6.65
2019-01-12T19:43:19.125Z,6.75
2019-01-12T19:45:47.954Z,6.57
2019-01-12T19:48:17.524Z,6.90
2019-01-12T19:50:46.412Z,7.00
2019-01-12T19:53:15.253Z,7.40
2019-01-12T19:55:44.834Z,7.43
2019-01-12T19:58:13.672Z,6.73
2019-01-12T20:00:42.508Z,6.43
2019-01-12T20:03:11.344Z,6.93
2019-01-12T20:05:40.173Z,6.97
2019-01-12T20:08:09.010Z,6.53
2019-01-12T20:10:37.860Z,6.53
2019-01-12T20:13:06.718Z,7.03
2019-01-12T20:15:35.572Z,6.27
2019-01-12T20:18:04.405Z,6.37
2019-01-12T20:20:33.253Z,6.40
2019-01-12T20:23:02.081Z,6.03
2019-01-12T20:25:30.922Z,6.30
2019-01-12T20:27:59.756Z,6.03
2019-01-12T20:30:30.399Z,6.33
2019-01-12T20:33:05.855Z,6.33
2019-01-12T20:35:42.401Z,5.90
2019-01-12T20:38:12.140Z,5.70
2019-01-12T20:43:31.417Z,5.93
2019-01-12T20:46:12.204Z,5.43
2019-01-12T20:48:49.877Z,5.68
2019-01-12T20:51:30.622Z,5.62
2019-01-12T20:54:03.875Z,5.20
2019-01-12T20:56:33.466Z,4.77
2019-01-12T20:59:07.975Z,4.50
2019-01-12T21:04:34.258Z,5.00
2019-01-12T21:09:59.165Z,5.00
2019-01-12T21:15:11.651Z,4.37
2019-01-12T21:17:40.484Z,3.40
2019-01-12T21:20:09.320Z,3.33
2019-01-12T21:22:38.155Z,3.33
2019-01-12T21:25:06.997Z,3.00
2019-01-12T21:27:35.838Z,3.23
2019-01-12T21:30:05.518Z,3.13
2019-01-12T21:32:34.363Z,3.00
2019-01-12T21:35:03.206Z,3.40
2019-01-12T21:37:33.051Z,3.50
2019-01-12T21:40:01.899Z,4.00
2019-01-12T21:42:30.767Z,4.13
2019-01-12T21:44:59.598Z,4.57
2019-01-12T21:47:29.213Z,5.07
2019-01-12T21:49:58.010Z,5.20
2019-01-12T21:52:26.867Z,5.60
2019-01-12T21:54:55.729Z,5.33
2019-01-12T21:57:24.566Z,5.30
2019-01-12T21:59:54.183Z,6.27
2019-01-12T22:02:23.061Z,5.43
2019-01-12T22:04:52.641Z,6.97
2019-01-12T22:07:21.496Z,5.67
2019-01-12T22:09:50.331Z,6.45
2019-01-12T22:12:20.030Z,6.10
2019-01-12T22:14:48.815Z,6.30
2019-01-12T22:17:17.719Z,6.10
2019-01-12T22:19:46.518Z,5.90
2019-01-12T22:22:15.357Z,5.87
2019-01-12T22:24:44.191Z,5.97
2019-01-12T22:27:13.041Z,6.20
2019-01-12T22:29:41.875Z,5.70
2019-01-12T22:32:11.484Z,6.17
2019-01-12T22:34:40.326Z,5.80
2019-01-12T22:37:09.163Z,6.20
2019-01-12T22:39:38.001Z,5.97
2019-01-12T22:42:06.867Z,6.13
2019-01-12T22:44:35.691Z,6.00
2019-01-12T22:47:04.550Z,6.37
2019-01-12T22:49:33.387Z,5.83
2019-01-12T22:52:02.247Z,6.73
2019-01-12T22:54:31.092Z,7.10
2019-01-12T22:56:59.920Z,7.97
2019-01-12T22:59:28.787Z,7.83
2019-01-12T23:01:57.633Z,8.20
2019-01-12T23:04:27.212Z,7.47
2019-01-12T23:06:56.042Z,7.70
2019-01-12T23:09:24.888Z,7.90
2019-01-12T23:11:53.738Z,8.23
2019-01-12T23:14:22.559Z,8.17
2019-01-12T23:16:51.397Z,8.37
2019-01-12T23:19:20.977Z,8.57
2019-01-12T23:21:49.815Z,8.50
2019-01-12T23:24:18.660Z,8.40
2019-01-12T23:26:47.505Z,8.80
2019-01-12T23:29:16.341Z,8.88
2019-01-12T23:31:45.176Z,7.70
2019-01-12T23:34:14.011Z,8.23
2019-01-12T23:36:42.850Z,7.43
2019-01-12T23:39:11.694Z,8.07
2019-01-12T23:41:41.276Z,7.47
2019-01-12T23:44:14.795Z,7.00
2019-01-12T23:46:39.702Z,7.70
2019-01-12T23:49:09.281Z,6.70
2019-01-12T23:51:38.122Z,7.17
2019-01-12T23:54:06.959Z,7.57
2019-01-12T23:56:35.794Z,7.17
2019-01-12T23:59:05.370Z,7.17
